Latest Coastal Weather Observations for Sydney Airport

IDN60701

Issued at 3:41 am EST Tuesday 1 September 2015 (issued every 10 minutes, with the page automatically refreshed every 10 minutes)

About coastal observations | Map of coastal stations | Coastal observations for NSW | Marine services | Other Formats
Station Details ID: 066037 Name: SYDNEY AIRPORT AMO Lat: -33.95 Lon: 151.17 Height: 6.0 m
Data from the previous 72 hours. | See also: Recent months at Sydney Airport
Date/Time
EST
Temp

°C
Wind Pressure Rain
since 9am
mm
Weather Cloud Vis
km
Sea
Height
m
Swell
Dir
 
Speed
knots
Gust
knots
hPa Trend Height
m
Period
s
Dir
01/03:30am 9.4 W 7 8 1014.4 - 0.0 - - 10 - - - -
01/03:00am 10.2 W 6 7 1014.6 S 0.0 Fine Mostly clear 30 - - - -
01/02:30am 10.3 W 5 7 1014.8 - 0.0 - - 10 - - - -
01/02:00am 9.9 WSW 9 10 1015.0 - 0.0 - - 10 - - - -
01/01:30am 9.6 W 8 8 1015.1 - 0.0 - - 10 - - - -
01/01:00am 10.3 WSW 5 6 1015.4 - 0.0 - - 10 - - - -
01/12:30am 11.1 W 6 7 1015.5 - 0.0 - - 10 - - - -
01/12:00am 11.5 WSW 7 9 1015.5 R 0.0 Fine Mostly clear 30 - - - -
 
Date/Time
EST
Temp

°C
Wind Pressure Rain
since 9am
mm
Weather Cloud Vis
km
Sea
Height
m
Swell
Dir
 
Speed
knots
Gust
knots
hPa Trend Height
m
Period
s
Dir
31/11:30pm 11.9 WSW 9 10 1015.5 - 0.0 - - 10 - - - -
31/11:00pm 12.2 WSW 10 12 1015.5 - 0.0 - - 10 - - - -
31/10:30pm 12.6 W 10 12 1015.6 - 0.0 - - 10 - - - -
31/10:00pm 12.8 W 10 14 1015.6 - 0.0 - - 10 - - - -
31/09:30pm 13.0 W 8 11 1015.7 - 0.0 - - 10 - - - -
31/09:00pm 13.3 W 7 9 1015.5 S 0.0 Fine Partly cloudy 30 - - - -
31/08:30pm 14.0 W 7 9 1015.4 - 0.0 - - 10 - - - -
31/08:00pm 14.3 W 6 7 1015.3 - 0.0 - - 10 - - - -
31/07:30pm 14.1 WSW 8 8 1015.0 - 0.0 - - 10 - - - -
31/07:00pm 14.4 SW 8 14 1014.7 - 0.0 - Partly cloudy 10 - - - -
31/06:30pm 15.1 SSW 8 15 1014.4 - 0.0 - Partly cloudy 10 - - - -
31/06:00pm 15.2 S 11 18 1014.3 F 0.0 Fine Partly cloudy 30 - - - -
31/05:30pm 15.3 S 11 14 1014.2 - 0.0 - - 10 - - - -
31/05:00pm 15.6 S 11 14 1014.0 - 0.0 - - 10 - - - -
31/04:30pm 15.7 S 13 16 1013.7 - 0.0 - - 10 - - - -
31/04:00pm 16.0 S 14 18 1013.8 - 0.0 - - 10 - - - -
31/03:30pm 16.2 S 15 19 1013.8 - 0.0 - - 10 - - - -
31/03:00pm 16.2 S 15 18 1013.9 F 0.0 Fine Mostly clear 30 - - - -
31/02:30pm 16.1 S 14 18 1014.0 - 0.0 - - 10 - - - -
31/02:00pm 16.2 SSE 14 17 1014.3 - 0.0 - - 10 - - - -
31/01:30pm 16.0 S 14 17 1014.5 - 0.0 - - 10 - - - -
31/01:00pm 16.1 SSE 14 18 1014.7 - 0.0 - - 10 - - - -
31/12:30pm 15.8 S 15 18 1015.1 - 0.0 - - 10 - - - -
31/12:00pm 15.5 S 16 20 1015.6 F 0.0 Fine Partly cloudy 30 - - - -
31/11:30am 15.7 S 14 17 1016.0 - 0.0 - - 10 - - - -
31/11:00am 15.8 SSW 8 13 1016.4 - 0.0 - - 10 - - - -
31/10:30am 15.6 WSW 5 11 1016.7 - 0.0 - - 10 - - - -
31/10:00am 15.0 SW 8 12 1017.0 - 0.0 - - 10 - - - -
31/09:30am 14.4 SSW 11 14 1017.2 - 0.0 - - 10 - - - -
31/09:00am 14.0 WSW 8 12 1017.3 F 0.0 Fine Mostly clear 30 - - - -
31/08:30am 13.2 WSW 10 13 1017.4 - 0.0 - - 10 - - - -
31/08:00am 12.5 W 9 13 1017.4 - 0.0 - - 10 - - - -
31/07:30am 11.7 W 11 14 1017.3 - 0.0 - - 10 - - - -
31/07:00am 10.6 W 9 12 1017.2 - 0.0 - - 10 - - - -
31/06:30am 9.7 W 9 17 1017.0 - 0.0 - - 10 - - - -
31/06:00am 9.7 W 9 10 1016.7 F 0.0 Fine Mostly clear 30 - - - -
31/05:30am 9.9 W 9 12 1016.6 - 0.0 - - 10 - - - -
31/05:00am 10.8 W 9 10 1016.5 - 0.0 - - 10 - - - -
31/04:30am 11.1 WSW 9 11 1016.5 - 0.0 - - 10 - - - -
31/04:00am 11.5 WSW 11 14 1016.5 - 0.0 - - 10 - - - -
31/03:30am 12.2 SW 13 16 1016.6 - 0.0 - - 10 - - - -
31/03:00am 12.4 SSW 15 19 1016.6 F 0.0 Fine Partly cloudy 30 - - - -
31/02:30am 12.5 SW 13 17 1017.1 - 0.0 - - 10 - - - -
31/02:00am 12.7 SW 13 16 1017.4 - 0.0 - - 10 - - - -
31/01:30am 13.2 SW 15 19 1017.9 - 0.0 - Mostly clear 10 - - - -
31/01:00am 13.7 SW 15 18 1018.1 - 0.0 - Mostly clear 10 - - - -
31/12:30am 13.7 SW 14 17 1018.2 - 0.0 - Mostly clear 10 - - - -
31/12:00am 13.5 SW 13 15 1018.3 F 0.0 Distant precip. Mostly cloudy 30 - - - -
 
Date/Time
EST
Temp

°C
Wind Pressure Rain
since 9am
mm
Weather Cloud Vis
km
Sea
Height
m
Swell
Dir
 
Speed
knots
Gust
knots
hPa Trend Height
m
Period
s
Dir
30/11:30pm 13.4 SW 12 15 1018.4 - 0.0 - Mostly clear 10 - - - -
30/11:00pm 13.5 SW 9 12 1018.4 - 0.0 - Mostly clear 10 - - - -
30/10:30pm 13.8 SSW 11 20 1018.5 - 0.0 - Mostly clear 10 - - - -
30/10:00pm 13.9 SSW 12 15 1018.7 - 0.0 - Mostly clear 10 - - - -
30/09:30pm 14.0 SSW 14 19 1018.6 - 0.0 - Mostly clear 10 - - - -
30/09:00pm 14.4 SSW 15 19 1018.6 F 0.0 Distant precip. Mostly cloudy 30 - - - -
30/08:30pm 14.7 SSW 15 19 1018.6 - 0.0 - Mostly clear 10 - - - -
30/08:00pm 15.0 SSW 15 18 1018.4 - 0.0 - Mostly clear 10 - - - -
30/07:30pm 15.0 SSW 12 15 1018.2 - 0.0 - Mostly clear 10 - - - -
30/07:00pm 15.3 SSW 15 19 1018.1 - 0.0 - Cloudy 10 - - - -
30/06:30pm 15.1 S 15 18 1017.9 - 0.0 - Mostly clear 10 - - - -
30/06:00pm 15.1 S 15 18 1017.8 F 0.0 Fine Partly cloudy 35 - - - -
30/05:30pm 14.9 S 15 19 1017.6 - 0.0 - Mostly clear 10 - - - -
30/05:00pm 14.9 S 16 20 1017.5 - 0.0 - Mostly clear 10 - - - -
30/04:30pm 15.1 S 17 26 1017.4 - 0.0 - Mostly clear 10 - - - -
30/04:00pm 15.4 S 17 20 1017.4 - 0.0 - Mostly clear 10 - - - -
30/03:30pm 15.6 S 17 20 1017.3 - 0.0 - Mostly clear 10 - - - -
30/03:00pm 15.8 S 16 20 1017.5 S 0.0 Fine Partly cloudy 35 - - - -
30/02:30pm 15.7 S 17 20 1017.7 - 0.0 - Mostly clear 10 - - - -
30/02:00pm 15.6 S 17 20 1017.7 - 0.0 - Mostly clear 10 - - - -
30/01:30pm 15.5 S 18 21 1017.9 - 0.0 - Mostly clear 10 - - - -
30/01:00pm 15.7 S 17 21 1018.1 - 0.0 - Mostly clear 10 - - - -
30/12:30pm 15.7 S 13 18 1018.5 - 0.0 - Mostly clear 10 - - - -
30/12:00pm 15.9 S 13 17 1019.0 R 0.0 Fine Mostly clear 35 - - - -
30/11:30am 15.6 SSW 14 18 1019.5 - 0.0 - Mostly clear 10 - - - -
30/11:00am 15.4 S 13 15 1019.9 - 0.0 - - 10 - - - -
30/10:30am 15.2 SSW 9 13 1020.0 - 0.0 - - 10 - - - -
30/10:00am 15.0 SSW 11 14 1020.2 - 0.0 - - 10 - - - -
30/09:30am 13.9 W 7 15 1020.1 - 0.0 - - 10 - - - -
30/09:00am 11.8 W 8 10 1020.2 F 0.0 Fine Mostly clear 40 - - - -
30/08:30am 12.3 W 9 10 1020.2 - 0.0 - - 10 - - - -
30/08:00am 10.8 WNW 10 15 1020.1 - 0.0 - - 10 - - - -
30/07:30am 9.4 WNW 10 14 1019.9 - 0.0 - - 10 - - - -
30/07:00am 8.4 WNW 10 11 1019.7 - 0.0 - - 10 - - - -
30/06:30am 7.9 WNW 7 10 1019.6 - 0.0 - - 10 - - - -
30/06:00am 8.0 NW 5 6 1019.4 F 0.0 Fine Mostly clear 40 - - - -
30/05:30am 7.6 WNW 5 8 1019.1 - 0.0 - - 10 - - - -
30/05:00am 7.6 WNW 6 7 1019.1 - 0.0 - - 10 - - - -
30/04:30am 7.7 WNW 7 8 1019.0 - 0.0 - - 10 - - - -
30/04:00am 7.9 WNW 8 10 1019.0 - 0.0 - - 10 - - - -
30/03:30am 8.2 WNW 7 9 1019.1 - 0.0 - - 10 - - - -
30/03:00am 8.3 W 8 10 1019.2 F 0.0 Fine Mostly clear 40 - - - -
30/02:30am 8.8 WNW 7 8 1019.5 - 0.0 - - 10 - - - -
30/02:00am 9.5 W 12 15 1019.6 - 0.0 - - 10 - - - -
30/01:30am 10.4 WSW 14 16 1019.9 - 0.0 - - 10 - - - -
30/01:00am 10.7 WSW 15 18 1020.3 - 0.0 - - 10 - - - -
30/12:30am 10.8 W 12 15 1020.4 - 0.0 - - 10 - - - -
30/12:00am 11.3 WSW 11 15 1020.6 S 0.0 Fine Mostly clear 40 - - - -
 
Date/Time
EST
Temp

°C
Wind Pressure Rain
since 9am
mm
Weather Cloud Vis
km
Sea
Height
m
Swell
Dir
 
Speed
knots
Gust
knots
hPa Trend Height
m
Period
s
Dir
29/11:30pm 11.4 WSW 13 15 1020.6 - 0.0 - Mostly clear 10 - - - -
29/11:00pm 11.6 SW 11 14 1020.7 - 0.0 - - 10 - - - -
29/10:30pm 11.9 SW 12 16 1020.8 - 0.0 - - 10 - - - -
29/10:00pm 12.2 WSW 12 15 1020.8 - 0.0 - Mostly clear 10 - - - -
29/09:30pm 12.8 WSW 11 14 1020.9 - 0.0 - Mostly clear 10 - - - -
29/09:00pm 13.5 WSW 15 18 1020.6 R 0.0 Fine Mostly clear 40 - - - -
29/08:30pm 13.3 WSW 12 16 1020.2 - 0.0 - Mostly clear 10 - - - -
29/08:00pm 14.1 SW 10 14 1020.0 - 0.0 - - 10 - - - -
29/07:30pm 14.9 SSW 6 10 1019.7 - 0.0 - - 10 - - - -
29/07:00pm 15.0 ESE 1 3 1019.3 - 0.0 - - 10 - - - -
29/06:30pm 15.3 ESE 5 5 1019.0 - 0.0 - - 10 - - - -
29/06:00pm 15.3 ENE 6 7 1018.6 S 0.0 Fine Mostly clear 40 - - - -
29/05:30pm 15.7 E 7 8 1018.3 - 0.0 - - 10 - - - -
29/05:00pm 16.4 E 8 9 1017.9 - 0.0 - - 10 - - - -
29/04:30pm 17.0 ESE 8 9 1017.8 - 0.0 - Partly cloudy 10 - - - -
29/04:00pm 17.3 SE 11 13 1017.8 - 0.0 - Partly cloudy 10 - - - -
29/03:30pm 18.0 SSE 9 11 1017.7 - 0.0 - Partly cloudy 10 - - - -
29/03:00pm 19.9 WSW 8 12 1017.8 F 0.0 Fine Mostly clear 30 - - - -
29/02:30pm 19.9 W 12 17 1018.0 - 0.0 - - 10 - - - -
29/02:00pm 20.1 WNW 11 14 1018.4 - 0.0 - - 10 - - - -
29/01:30pm 18.2 W 9 14 1018.8 - 0.0 - - 10 - - - -
29/01:00pm 18.8 W 8 12 1019.4 - 0.0 - - 10 - - - -
29/12:30pm 17.5 W 6 10 1020.0 - 0.0 - Mostly clear 10 - - - -
29/12:00pm 17.4 W 7 10 1020.6 F 0.0 Fine Mostly clear 30 - - - -
29/11:30am 17.3 WSW 5 9 1021.1 - 0.0 - Mostly clear 10 - - - -
29/11:00am 15.9 WSW 7 10 1021.5 - 0.0 - Mostly clear 10 - - - -
29/10:30am 16.3 WNW 7 12 1021.7 - 0.0 - Mostly clear 10 - - - -
29/10:00am 15.5 WNW 7 9 1022.0 - 0.0 - Mostly clear 10 - - - -
29/09:30am 14.6 WNW 5 7 1022.3 - 0.0 - Mostly clear 10 - - - -
29/09:00am 14.9 NW 5 7 1022.6 F 0.0 Fine Mostly clear 30 - - - -
29/08:30am 13.7 NW 6 8 1023.0 - 0.0 - Mostly clear 10 - - - -
29/08:00am 12.6 NW 6 9 1022.8 - 0.0 - Mostly clear 10 - - - -
29/07:30am 10.9 WNW 5 7 1022.7 - 0.0 - Mostly clear 10 - - - -
29/07:00am 10.3 NW 6 7 1022.5 - 0.0 - Mostly clear 10 - - - -
29/06:30am 10.3 NNW 5 6 1022.4 - 0.0 - Mostly clear 10 - - - -
29/06:00am 9.8 NNW 5 5 1022.1 F 0.0 Fine Mostly clear 40 - - - -
29/05:30am 9.9 NNW 7 7 1022.0 - 0.0 - - 10 - - - -
29/05:00am 9.6 NW 5 7 1021.9 - 0.0 - - 10 - - - -
29/04:30am 10.1 NNW 5 6 1021.9 - 0.0 - - 10 - - - -
29/04:00am 9.7 NNW 5 7 1021.9 - 0.0 - - 10 - - - -

Other Formats:

Comma delimited format used in spreadsheet applications
http://www.bom.gov.au/fwo/IDN60701/IDN60701.94767.axf

JavaScript Object Notation format (JSON) in row-major order
http://www.bom.gov.au/fwo/IDN60701/IDN60701.94767.json